sensor_id;sensor_type;location;lat;lon;timestamp;pressure;altitude;pressure_sealevel;temperature;humidity
26376;BME280;30544;42.196;24.336;2024-03-29T00:01:19;98810.16;;;15.04;44.13
26376;BME280;30544;42.196;24.336;2024-03-29T00:03:44;98805.47;;;14.95;44.51
26376;BME280;30544;42.196;24.336;2024-03-29T00:06:11;98816.63;;;14.90;44.59
26376;BME280;30544;42.196;24.336;2024-03-29T00:08:37;98838.19;;;14.79;44.68
26376;BME280;30544;42.196;24.336;2024-03-29T00:11:03;98844.34;;;14.71;44.88
26376;BME280;30544;42.196;24.336;2024-03-29T00:13:28;98837.94;;;14.65;45.04
26376;BME280;30544;42.196;24.336;2024-03-29T00:15:54;98841.31;;;14.57;45.28
26376;BME280;30544;42.196;24.336;2024-03-29T00:18:20;98843.00;;;14.53;46.09
26376;BME280;30544;42.196;24.336;2024-03-29T00:20:45;98842.47;;;14.46;46.48
26376;BME280;30544;42.196;24.336;2024-03-29T00:23:13;98845.75;;;14.43;46.36
26376;BME280;30544;42.196;24.336;2024-03-29T00:25:38;98837.16;;;14.34;46.31
26376;BME280;30544;42.196;24.336;2024-03-29T00:28:04;98844.69;;;14.29;46.53
26376;BME280;30544;42.196;24.336;2024-03-29T00:30:29;98840.78;;;14.25;46.58
26376;BME280;30544;42.196;24.336;2024-03-29T00:32:55;98838.00;;;14.20;46.83
26376;BME280;30544;42.196;24.336;2024-03-29T00:35:21;98822.94;;;14.21;46.69
26376;BME280;30544;42.196;24.336;2024-03-29T00:37:46;98825.16;;;14.24;46.51
26376;BME280;30544;42.196;24.336;2024-03-29T00:40:13;98836.88;;;14.21;46.61
26376;BME280;30544;42.196;24.336;2024-03-29T00:42:39;98840.78;;;14.20;46.70
26376;BME280;30544;42.196;24.336;2024-03-29T00:45:05;98838.56;;;14.17;46.91
26376;BME280;30544;42.196;24.336;2024-03-29T00:47:30;98835.78;;;14.11;46.64
26376;BME280;30544;42.196;24.336;2024-03-29T00:49:56;98829.09;;;14.07;46.90
26376;BME280;30544;42.196;24.336;2024-03-29T00:52:21;98824.34;;;14.03;46.94
26376;BME280;30544;42.196;24.336;2024-03-29T00:54:47;98825.75;;;14.00;46.89
26376;BME280;30544;42.196;24.336;2024-03-29T00:57:14;98827.97;;;13.98;47.56
26376;BME280;30544;42.196;24.336;2024-03-29T00:59:40;98832.16;;;13.96;46.96
26376;BME280;30544;42.196;24.336;2024-03-29T01:02:05;98840.22;;;13.92;47.01
26376;BME280;30544;42.196;24.336;2024-03-29T01:04:31;98845.25;;;13.90;47.78
26376;BME280;30544;42.196;24.336;2024-03-29T01:06:56;98844.97;;;13.87;47.59
26376;BME280;30544;42.196;24.336;2024-03-29T01:09:22;98846.09;;;13.85;47.46
26376;BME280;30544;42.196;24.336;2024-03-29T01:11:50;98854.47;;;13.85;47.57
26376;BME280;30544;42.196;24.336;2024-03-29T01:14:17;98860.31;;;13.89;47.55
26376;BME280;30544;42.196;24.336;2024-03-29T01:16:43;98860.03;;;13.85;47.35
26376;BME280;30544;42.196;24.336;2024-03-29T01:19:08;98851.66;;;13.85;47.79
26376;BME280;30544;42.196;24.336;2024-03-29T01:21:34;98854.16;;;13.92;47.94
26376;BME280;30544;42.196;24.336;2024-03-29T01:24:00;98860.59;;;13.93;47.96
26376;BME280;30544;42.196;24.336;2024-03-29T01:26:25;98867.56;;;13.90;47.79
26376;BME280;30544;42.196;24.336;2024-03-29T01:28:51;98867.84;;;13.89;48.01
26376;BME280;30544;42.196;24.336;2024-03-29T01:31:18;98870.63;;;13.89;48.04
26376;BME280;30544;42.196;24.336;2024-03-29T01:33:43;98872.56;;;13.88;48.14
26376;BME280;30544;42.196;24.336;2024-03-29T01:36:09;98869.22;;;13.91;47.85
26376;BME280;30544;42.196;24.336;2024-03-29T01:38:35;98874.81;;;13.91;47.59
26376;BME280;30544;42.196;24.336;2024-03-29T01:41:00;98876.78;;;13.96;47.35
26376;BME280;30544;42.196;24.336;2024-03-29T01:43:26;98882.06;;;13.97;47.49
26376;BME280;30544;42.196;24.336;2024-03-29T01:45:54;98875.66;;;13.97;47.59
26376;BME280;30544;42.196;24.336;2024-03-29T01:48:23;98880.09;;;13.93;47.66
26376;BME280;30544;42.196;24.336;2024-03-29T01:50:51;98874.53;;;13.93;47.68
26376;BME280;30544;42.196;24.336;2024-03-29T01:53:18;98893.19;;;13.92;47.43
26376;BME280;30544;42.196;24.336;2024-03-29T01:55:45;98894.63;;;13.95;47.39
26376;BME280;30544;42.196;24.336;2024-03-29T01:58:12;98893.50;;;13.96;47.85
26376;BME280;30544;42.196;24.336;2024-03-29T02:00:41;98889.28;;;13.93;48.26
26376;BME280;30544;42.196;24.336;2024-03-29T02:03:08;98891.25;;;13.88;48.67
26376;BME280;30544;42.196;24.336;2024-03-29T02:05:40;98899.63;;;13.82;48.63
26376;BME280;30544;42.196;24.336;2024-03-29T02:08:06;98904.59;;;13.75;48.74
26376;BME280;30544;42.196;24.336;2024-03-29T02:10:33;98905.72;;;13.69;48.82
26376;BME280;30544;42.196;24.336;2024-03-29T02:13:00;98907.09;;;13.67;48.72
26376;BME280;30544;42.196;24.336;2024-03-29T02:15:27;98908.22;;;13.66;48.22
26376;BME280;30544;42.196;24.336;2024-03-29T02:17:54;98911.00;;;13.66;48.81
26376;BME280;30544;42.196;24.336;2024-03-29T02:20:19;98920.75;;;13.63;48.62
26376;BME280;30544;42.196;24.336;2024-03-29T02:22:49;98926.63;;;13.62;48.57
26376;BME280;30544;42.196;24.336;2024-03-29T02:25:19;98931.63;;;13.65;48.14
26376;BME280;30544;42.196;24.336;2024-03-29T02:27:45;98928.84;;;13.65;48.27
26376;BME280;30544;42.196;24.336;2024-03-29T02:30:13;98942.78;;;13.65;48.05
26376;BME280;30544;42.196;24.336;2024-03-29T02:32:39;98941.16;;;13.84;47.87
26376;BME280;30544;42.196;24.336;2024-03-29T02:35:06;98941.19;;;13.94;47.43
26376;BME280;30544;42.196;24.336;2024-03-29T02:37:33;98938.38;;;13.94;47.32
26376;BME280;30544;42.196;24.336;2024-03-29T02:39:59;98947.59;;;13.95;47.54
26376;BME280;30544;42.196;24.336;2024-03-29T02:42:27;98945.31;;;13.92;48.24
26376;BME280;30544;42.196;24.336;2024-03-29T02:44:54;98951.19;;;13.85;48.20
26376;BME280;30544;42.196;24.336;2024-03-29T02:47:21;98954.81;;;13.80;48.21
26376;BME280;30544;42.196;24.336;2024-03-29T02:49:46;98968.97;;;13.74;48.64
26376;BME280;30544;42.196;24.336;2024-03-29T02:52:13;98962.28;;;13.70;48.34
26376;BME280;30544;42.196;24.336;2024-03-29T02:54:39;98963.13;;;13.70;48.44
26376;BME280;30544;42.196;24.336;2024-03-29T02:57:05;98962.84;;;13.67;48.21
26376;BME280;30544;42.196;24.336;2024-03-29T02:59:32;98976.22;;;13.70;48.10
26376;BME280;30544;42.196;24.336;2024-03-29T03:01:59;98970.09;;;13.73;47.78
26376;BME280;30544;42.196;24.336;2024-03-29T03:04:25;98980.44;;;13.77;47.82
26376;BME280;30544;42.196;24.336;2024-03-29T03:06:51;98981.28;;;13.83;47.70
26376;BME280;30544;42.196;24.336;2024-03-29T03:09:17;98990.22;;;13.90;47.70
26376;BME280;30544;42.196;24.336;2024-03-29T03:12:00;98999.72;;;13.94;47.75
26376;BME280;30544;42.196;24.336;2024-03-29T03:14:27;99004.44;;;13.94;47.81
26376;BME280;30544;42.196;24.336;2024-03-29T03:16:55;99007.81;;;13.96;47.52
26376;BME280;30544;42.196;24.336;2024-03-29T03:19:22;99016.72;;;13.98;47.89
26376;BME280;30544;42.196;24.336;2024-03-29T03:21:49;99033.72;;;13.96;47.59
26376;BME280;30544;42.196;24.336;2024-03-29T03:24:16;99038.19;;;13.97;47.41
26376;BME280;30544;42.196;24.336;2024-03-29T03:26:42;99029.84;;;14.02;47.59
26376;BME280;30544;42.196;24.336;2024-03-29T03:29:08;99032.63;;;14.07;47.36
26376;BME280;30544;42.196;24.336;2024-03-29T03:31:35;99042.44;;;14.15;47.40
26376;BME280;30544;42.196;24.336;2024-03-29T03:34:03;99049.97;;;14.20;47.28
26376;BME280;30544;42.196;24.336;2024-03-29T03:36:28;99048.56;;;14.22;46.82
26376;BME280;30544;42.196;24.336;2024-03-29T03:38:55;99051.06;;;14.19;47.77
26376;BME280;30544;42.196;24.336;2024-03-29T03:41:21;99057.75;;;14.12;47.56
26376;BME280;30544;42.196;24.336;2024-03-29T03:43:47;99061.13;;;14.20;47.14
26376;BME280;30544;42.196;24.336;2024-03-29T03:46:13;99065.56;;;14.26;47.28
26376;BME280;30544;42.196;24.336;2024-03-29T03:48:39;99075.09;;;14.30;47.19
26376;BME280;30544;42.196;24.336;2024-03-29T03:51:07;99091.56;;;14.31;47.13
26376;BME280;30544;42.196;24.336;2024-03-29T03:53:33;99081.22;;;14.32;46.89
26376;BME280;30544;42.196;24.336;2024-03-29T03:55:59;99095.25;;;14.47;46.82
26376;BME280;30544;42.196;24.336;2024-03-29T03:58:25;99092.50;;;14.62;46.18
26376;BME280;30544;42.196;24.336;2024-03-29T04:00:51;99093.59;;;14.61;46.11
26376;BME280;30544;42.196;24.336;2024-03-29T04:03:17;99100.28;;;14.55;46.31
26376;BME280;30544;42.196;24.336;2024-03-29T04:05:43;99101.38;;;14.54;46.84
26376;BME280;30544;42.196;24.336;2024-03-29T04:08:10;99105.00;;;14.44;46.79
26376;BME280;30544;42.196;24.336;2024-03-29T04:10:38;99106.91;;;14.34;47.08
26376;BME280;30544;42.196;24.336;2024-03-29T04:13:04;99107.97;;;14.18;47.52
26376;BME280;30544;42.196;24.336;2024-03-29T04:15:30;99114.06;;;14.09;47.69
26376;BME280;30544;42.196;24.336;2024-03-29T04:17:58;99118.50;;;14.00;47.99
26376;BME280;30544;42.196;24.336;2024-03-29T04:20:25;99124.31;;;13.94;47.65
26376;BME280;30544;42.196;24.336;2024-03-29T04:22:50;99119.28;;;13.91;47.59
26376;BME280;30544;42.196;24.336;2024-03-29T04:25:18;99118.44;;;13.90;47.32
26376;BME280;30544;42.196;24.336;2024-03-29T04:27:44;99121.78;;;13.87;47.15
26376;BME280;30544;42.196;24.336;2024-03-29T04:30:11;99129.88;;;13.89;47.38
26376;BME280;30544;42.196;24.336;2024-03-29T04:32:36;99133.50;;;13.89;47.28
26376;BME280;30544;42.196;24.336;2024-03-29T04:35:04;99126.25;;;13.88;46.89
26376;BME280;30544;42.196;24.336;2024-03-29T04:37:29;99119.00;;;13.92;47.15
26376;BME280;30544;42.196;24.336;2024-03-29T04:39:56;99131.03;;;13.98;46.79
26376;BME280;30544;42.196;24.336;2024-03-29T04:42:24;99126.59;;;14.07;46.54
26376;BME280;30544;42.196;24.336;2024-03-29T04:44:50;99116.91;;;14.20;46.85
26376;BME280;30544;42.196;24.336;2024-03-29T04:47:17;99120.00;;;14.28;46.68
26376;BME280;30544;42.196;24.336;2024-03-29T04:49:43;99113.88;;;14.41;45.74
26376;BME280;30544;42.196;24.336;2024-03-29T04:52:10;99134.88;;;14.54;45.33
26376;BME280;30544;42.196;24.336;2024-03-29T04:54:37;99146.91;;;14.65;44.87
26376;BME280;30544;42.196;24.336;2024-03-29T04:57:03;99149.41;;;14.77;44.79
26376;BME280;30544;42.196;24.336;2024-03-29T04:59:32;99149.44;;;14.87;45.22
26376;BME280;30544;42.196;24.336;2024-03-29T05:01:59;99153.63;;;14.94;45.05
26376;BME280;30544;42.196;24.336;2024-03-29T05:04:25;99159.25;;;14.99;44.45
26376;BME280;30544;42.196;24.336;2024-03-29T05:06:52;99164.53;;;15.01;44.95
26376;BME280;30544;42.196;24.336;2024-03-29T05:09:19;99158.13;;;15.05;44.71
26376;BME280;30544;42.196;24.336;2024-03-29T05:11:46;99159.81;;;15.12;44.51
26376;BME280;30544;42.196;24.336;2024-03-29T05:14:12;99152.81;;;15.19;43.95
26376;BME280;30544;42.196;24.336;2024-03-29T05:16:43;99169.00;;;15.27;43.87
26376;BME280;30544;42.196;24.336;2024-03-29T05:19:09;99184.66;;;15.39;44.06
26376;BME280;30544;42.196;24.336;2024-03-29T05:21:36;99188.59;;;15.48;43.66
26376;BME280;30544;42.196;24.336;2024-03-29T05:24:02;99196.38;;;15.56;43.02
26376;BME280;30544;42.196;24.336;2024-03-29T05:26:29;99182.16;;;15.68;43.51
26376;BME280;30544;42.196;24.336;2024-03-29T05:28:56;99181.28;;;15.77;43.09
26376;BME280;30544;42.196;24.336;2024-03-29T05:31:23;99186.03;;;15.82;43.09
26376;BME280;30544;42.196;24.336;2024-03-29T05:33:51;99190.75;;;15.91;42.79
26376;BME280;30544;42.196;24.336;2024-03-29T05:36:18;99189.38;;;15.99;42.20
26376;BME280;30544;42.196;24.336;2024-03-29T05:38:45;99196.28;;;16.12;42.73
26376;BME280;30544;42.196;24.336;2024-03-29T05:41:11;99194.59;;;16.21;42.29
26376;BME280;30544;42.196;24.336;2024-03-29T05:43:38;99194.84;;;16.30;42.22
26376;BME280;30544;42.196;24.336;2024-03-29T05:46:04;99188.34;;;16.44;41.84
26376;BME280;30544;42.196;24.336;2024-03-29T05:48:31;99197.28;;;16.51;42.17
26376;BME280;30544;42.196;24.336;2024-03-29T05:50:59;99194.16;;;16.63;42.70
26376;BME280;30544;42.196;24.336;2024-03-29T05:53:26;99194.94;;;16.74;43.11
26376;BME280;30544;42.196;24.336;2024-03-29T05:55:52;99193.22;;;16.83;42.55
26376;BME280;30544;42.196;24.336;2024-03-29T05:58:19;99197.59;;;16.94;43.05
26376;BME280;30544;42.196;24.336;2024-03-29T06:00:46;99202.63;;;17.02;42.58
26376;BME280;30544;42.196;24.336;2024-03-29T06:03:13;99201.13;;;17.15;42.52
26376;BME280;30544;42.196;24.336;2024-03-29T06:05:39;99200.19;;;17.25;42.42
26376;BME280;30544;42.196;24.336;2024-03-29T06:08:08;99205.69;;;17.40;42.36
26376;BME280;30544;42.196;24.336;2024-03-29T06:10:34;99214.28;;;17.54;42.64
26376;BME280;30544;42.196;24.336;2024-03-29T06:13:00;99215.31;;;17.68;42.43
26376;BME280;30544;42.196;24.336;2024-03-29T06:15:32;99215.50;;;17.77;42.38
26376;BME280;30544;42.196;24.336;2024-03-29T06:18:16;99212.53;;;17.92;42.72
26376;BME280;30544;42.196;24.336;2024-03-29T06:20:43;99216.31;;;18.06;42.36
26376;BME280;30544;42.196;24.336;2024-03-29T06:23:11;99217.28;;;18.20;42.13
26376;BME280;30544;42.196;24.336;2024-03-29T06:25:39;99228.88;;;18.38;41.94
26376;BME280;30544;42.196;24.336;2024-03-29T06:28:05;99210.19;;;18.52;41.70
26376;BME280;30544;42.196;24.336;2024-03-29T06:30:32;99213.13;;;18.66;41.31
26376;BME280;30544;42.196;24.336;2024-03-29T06:32:58;99206.16;;;18.82;40.82
26376;BME280;30544;42.196;24.336;2024-03-29T06:35:27;99207.31;;;19.00;40.48
26376;BME280;30544;42.196;24.336;2024-03-29T06:37:54;99214.66;;;19.14;39.41
26376;BME280;30544;42.196;24.336;2024-03-29T06:40:22;99212.69;;;19.34;39.58
26376;BME280;30544;42.196;24.336;2024-03-29T06:42:48;99214.13;;;19.50;38.53
26376;BME280;30544;42.196;24.336;2024-03-29T06:45:15;99211.59;;;19.67;38.38
26376;BME280;30544;42.196;24.336;2024-03-29T06:47:41;99222.88;;;19.81;37.57
26376;BME280;30544;42.196;24.336;2024-03-29T06:50:08;99227.91;;;19.98;36.75
26376;BME280;30544;42.196;24.336;2024-03-29T06:52:35;99227.88;;;20.17;36.63
26376;BME280;30544;42.196;24.336;2024-03-29T06:55:01;99220.56;;;20.29;36.21
26376;BME280;30544;42.196;24.336;2024-03-29T06:57:30;99229.06;;;20.43;36.57
26376;BME280;30544;42.196;24.336;2024-03-29T06:59:57;99233.03;;;20.56;35.29
26376;BME280;30544;42.196;24.336;2024-03-29T07:02:23;99240.53;;;20.60;35.51
26376;BME280;30544;42.196;24.336;2024-03-29T07:04:50;99253.34;;;20.80;35.68
26376;BME280;30544;42.196;24.336;2024-03-29T07:07:16;99242.38;;;20.92;35.21
26376;BME280;30544;42.196;24.336;2024-03-29T07:09:43;99250.31;;;21.04;35.32
26376;BME280;30544;42.196;24.336;2024-03-29T07:12:09;99235.66;;;21.16;34.89
26376;BME280;30544;42.196;24.336;2024-03-29T07:14:37;99238.59;;;21.24;34.29
26376;BME280;30544;42.196;24.336;2024-03-29T07:17:04;99240.56;;;21.38;34.25
26376;BME280;30544;42.196;24.336;2024-03-29T07:19:30;99235.41;;;21.40;34.36
26376;BME280;30544;42.196;24.336;2024-03-29T07:21:57;99240.09;;;21.44;34.16
26376;BME280;30544;42.196;24.336;2024-03-29T07:24:23;99239.81;;;21.68;34.23
26376;BME280;30544;42.196;24.336;2024-03-29T07:26:50;99252.13;;;21.72;33.86
26376;BME280;30544;42.196;24.336;2024-03-29T07:29:17;99245.19;;;21.78;33.55
26376;BME280;30544;42.196;24.336;2024-03-29T07:31:44;99248.19;;;21.82;34.21
26376;BME280;30544;42.196;24.336;2024-03-29T07:34:11;99242.66;;;21.99;34.83
26376;BME280;30544;42.196;24.336;2024-03-29T07:36:37;99247.31;;;22.17;34.10
26376;BME280;30544;42.196;24.336;2024-03-29T07:39:05;99256.81;;;22.30;33.37
26376;BME280;30544;42.196;24.336;2024-03-29T07:41:32;99258.47;;;22.31;33.17
26376;BME280;30544;42.196;24.336;2024-03-29T07:43:58;99247.25;;;22.40;33.46
26376;BME280;30544;42.196;24.336;2024-03-29T07:46:27;99248.44;;;22.47;33.10
26376;BME280;30544;42.196;24.336;2024-03-29T07:48:55;99250.66;;;22.59;32.61
26376;BME280;30544;42.196;24.336;2024-03-29T07:51:22;99249.53;;;22.77;32.75
26376;BME280;30544;42.196;24.336;2024-03-29T07:53:48;99253.91;;;22.84;32.70
26376;BME280;30544;42.196;24.336;2024-03-29T07:56:15;99247.63;;;22.95;33.16
26376;BME280;30544;42.196;24.336;2024-03-29T07:58:42;99248.34;;;23.09;32.66
26376;BME280;30544;42.196;24.336;2024-03-29T08:01:08;99244.66;;;23.18;32.27
26376;BME280;30544;42.196;24.336;2024-03-29T08:03:35;99243.53;;;23.27;31.90
26376;BME280;30544;42.196;24.336;2024-03-29T08:06:06;99248.19;;;23.32;31.79
26376;BME280;30544;42.196;24.336;2024-03-29T08:08:33;99255.69;;;23.45;31.74
26376;BME280;30544;42.196;24.336;2024-03-29T08:10:59;99252.53;;;23.47;31.45
26376;BME280;30544;42.196;24.336;2024-03-29T08:13:26;99249.22;;;23.62;31.70
26376;BME280;30544;42.196;24.336;2024-03-29T08:15:56;99249.75;;;23.73;31.47
26376;BME280;30544;42.196;24.336;2024-03-29T08:18:24;99245.56;;;23.87;31.54
26376;BME280;30544;42.196;24.336;2024-03-29T08:20:50;99244.53;;;24.00;31.01
26376;BME280;30544;42.196;24.336;2024-03-29T08:23:18;99244.03;;;24.07;31.29
26376;BME280;30544;42.196;24.336;2024-03-29T08:25:45;99244.47;;;24.26;30.40
26376;BME280;30544;42.196;24.336;2024-03-29T08:28:11;99247.13;;;24.40;29.94
26376;BME280;30544;42.196;24.336;2024-03-29T08:30:38;99238.28;;;24.42;29.93
26376;BME280;30544;42.196;24.336;2024-03-29T08:33:04;99242.72;;;24.60;29.91
26376;BME280;30544;42.196;24.336;2024-03-29T08:35:31;99228.66;;;24.72;29.67
26376;BME280;30544;42.196;24.336;2024-03-29T08:37:58;99232.47;;;24.76;29.51
26376;BME280;30544;42.196;24.336;2024-03-29T08:40:26;99234.38;;;24.93;29.38
26376;BME280;30544;42.196;24.336;2024-03-29T08:42:54;99235.00;;;24.99;28.92
26376;BME280;30544;42.196;24.336;2024-03-29T08:45:20;99240.19;;;25.05;29.92
26376;BME280;30544;42.196;24.336;2024-03-29T08:47:47;99231.72;;;25.17;28.92
26376;BME280;30544;42.196;24.336;2024-03-29T08:50:14;99241.59;;;25.20;28.61
26376;BME280;30544;42.196;24.336;2024-03-29T08:52:40;99244.13;;;25.34;29.12
26376;BME280;30544;42.196;24.336;2024-03-29T08:55:07;99247.41;;;25.44;29.56
26376;BME280;30544;42.196;24.336;2024-03-29T08:57:35;99234.81;;;25.54;28.34
26376;BME280;30544;42.196;24.336;2024-03-29T09:00:02;99248.31;;;25.57;28.93
26376;BME280;30544;42.196;24.336;2024-03-29T09:02:30;99244.66;;;25.57;28.92
26376;BME280;30544;42.196;24.336;2024-03-29T09:04:56;99241.31;;;25.55;27.51
26376;BME280;30544;42.196;24.336;2024-03-29T09:07:23;99230.53;;;25.69;28.27
26376;BME280;30544;42.196;24.336;2024-03-29T09:09:49;99234.25;;;25.61;26.62
26376;BME280;30544;42.196;24.336;2024-03-29T09:12:16;99233.06;;;25.62;26.76
26376;BME280;30544;42.196;24.336;2024-03-29T09:14:44;99234.19;;;25.69;27.14
26376;BME280;30544;42.196;24.336;2024-03-29T09:17:11;99230.53;;;25.69;26.07
26376;BME280;30544;42.196;24.336;2024-03-29T09:19:38;99218.50;;;25.72;26.47
26376;BME280;30544;42.196;24.336;2024-03-29T09:22:04;99214.84;;;25.63;26.73
26376;BME280;30544;42.196;24.336;2024-03-29T09:24:31;99219.09;;;25.57;26.55
26376;BME280;30544;42.196;24.336;2024-03-29T09:26:59;99217.16;;;25.69;26.17
26376;BME280;30544;42.196;24.336;2024-03-29T09:29:26;99219.44;;;25.76;26.33
26376;BME280;30544;42.196;24.336;2024-03-29T09:31:54;99207.50;;;25.83;25.98
26376;BME280;30544;42.196;24.336;2024-03-29T09:34:20;99212.66;;;25.89;27.44
26376;BME280;30544;42.196;24.336;2024-03-29T09:36:48;99198.09;;;26.03;26.85
26376;BME280;30544;42.196;24.336;2024-03-29T09:39:14;99194.47;;;26.15;26.26
26376;BME280;30544;42.196;24.336;2024-03-29T09:41:42;99193.09;;;26.21;26.58
26376;BME280;30544;42.196;24.336;2024-03-29T09:44:10;99196.16;;;26.28;27.05
26376;BME280;30544;42.196;24.336;2024-03-29T09:46:37;99193.59;;;26.35;27.07
26376;BME280;30544;42.196;24.336;2024-03-29T09:49:06;99190.59;;;26.31;26.51
26376;BME280;30544;42.196;24.336;2024-03-29T09:51:34;99191.06;;;26.33;26.31
26376;BME280;30544;42.196;24.336;2024-03-29T09:54:00;99187.69;;;26.40;26.56
26376;BME280;30544;42.196;24.336;2024-03-29T09:56:29;99173.84;;;26.38;26.37
26376;BME280;30544;42.196;24.336;2024-03-29T09:58:56;99179.63;;;26.42;27.08
26376;BME280;30544;42.196;24.336;2024-03-29T10:01:23;99173.94;;;26.42;26.23
26376;BME280;30544;42.196;24.336;2024-03-29T10:03:50;99169.81;;;26.40;25.35
26376;BME280;30544;42.196;24.336;2024-03-29T10:06:18;99176.75;;;26.30;25.48
26376;BME280;30544;42.196;24.336;2024-03-29T10:08:45;99178.56;;;26.47;25.16
26376;BME280;30544;42.196;24.336;2024-03-29T10:11:12;99165.38;;;26.30;25.11
26376;BME280;30544;42.196;24.336;2024-03-29T10:13:41;99153.81;;;26.47;25.74
26376;BME280;30544;42.196;24.336;2024-03-29T10:16:09;99159.75;;;26.54;24.67
26376;BME280;30544;42.196;24.336;2024-03-29T10:18:36;99150.03;;;26.55;25.96
26376;BME280;30544;42.196;24.336;2024-03-29T10:21:03;99147.06;;;26.64;24.83
26376;BME280;30544;42.196;24.336;2024-03-29T10:23:32;99144.69;;;26.66;24.67
26376;BME280;30544;42.196;24.336;2024-03-29T10:25:57;99139.09;;;26.69;25.00
26376;BME280;30544;42.196;24.336;2024-03-29T10:28:27;99135.69;;;26.76;24.87
26376;BME280;30544;42.196;24.336;2024-03-29T10:30:54;99122.03;;;26.69;24.21
26376;BME280;30544;42.196;24.336;2024-03-29T10:33:20;99133.66;;;26.77;24.95
26376;BME280;30544;42.196;24.336;2024-03-29T10:35:47;99127.16;;;26.76;24.58
26376;BME280;30544;42.196;24.336;2024-03-29T10:38:13;99121.47;;;26.76;24.34
26376;BME280;30544;42.196;24.336;2024-03-29T10:40:41;99109.97;;;26.73;24.93
26376;BME280;30544;42.196;24.336;2024-03-29T10:43:09;99108.06;;;26.64;25.26
26376;BME280;30544;42.196;24.336;2024-03-29T10:45:37;99101.66;;;26.67;24.94
26376;BME280;30544;42.196;24.336;2024-03-29T10:48:03;99101.44;;;26.60;24.87
26376;BME280;30544;42.196;24.336;2024-03-29T10:50:34;99093.03;;;26.64;25.23
26376;BME280;30544;42.196;24.336;2024-03-29T10:53:00;99093.59;;;26.69;25.71
26376;BME280;30544;42.196;24.336;2024-03-29T10:55:27;99089.56;;;26.71;25.03
26376;BME280;30544;42.196;24.336;2024-03-29T10:57:56;99083.66;;;26.76;27.12
26376;BME280;30544;42.196;24.336;2024-03-29T11:00:23;99090.47;;;26.87;25.45
26376;BME280;30544;42.196;24.336;2024-03-29T11:02:51;99082.09;;;26.90;25.25
26376;BME280;30544;42.196;24.336;2024-03-29T11:05:21;99072.47;;;26.83;24.77
26376;BME280;30544;42.196;24.336;2024-03-29T11:07:48;99073.69;;;26.69;25.18
26376;BME280;30544;42.196;24.336;2024-03-29T11:10:17;99064.06;;;26.86;25.06
26376;BME280;30544;42.196;24.336;2024-03-29T11:12:50;99068.34;;;26.80;25.49
26376;BME280;30544;42.196;24.336;2024-03-29T11:15:22;99061.09;;;26.95;24.64
26376;BME280;30544;42.196;24.336;2024-03-29T11:17:52;99056.22;;;27.08;25.09
26376;BME280;30544;42.196;24.336;2024-03-29T11:20:20;99059.16;;;27.11;24.49
26376;BME280;30544;42.196;24.336;2024-03-29T11:22:52;99050.06;;;27.06;24.88
26376;BME280;30544;42.196;24.336;2024-03-29T11:25:20;99046.31;;;27.17;24.50
26376;BME280;30544;42.196;24.336;2024-03-29T11:27:46;99039.25;;;27.11;24.14
26376;BME280;30544;42.196;24.336;2024-03-29T11:30:16;99042.28;;;27.18;24.38
26376;BME280;30544;42.196;24.336;2024-03-29T11:32:44;99035.41;;;26.79;24.62
26376;BME280;30544;42.196;24.336;2024-03-29T11:35:14;99039.25;;;26.99;24.83
26376;BME280;30544;42.196;24.336;2024-03-29T11:37:41;99037.13;;;27.08;25.62
26376;BME280;30544;42.196;24.336;2024-03-29T11:40:10;99031.44;;;27.08;25.85
26376;BME280;30544;42.196;24.336;2024-03-29T11:42:37;99029.25;;;27.17;25.50
26376;BME280;30544;42.196;24.336;2024-03-29T11:45:04;99019.97;;;27.20;24.93
26376;BME280;30544;42.196;24.336;2024-03-29T11:47:32;99028.31;;;27.13;24.66
26376;BME280;30544;42.196;24.336;2024-03-29T11:50:01;99027.22;;;26.90;24.88
26376;BME280;30544;42.196;24.336;2024-03-29T11:52:27;99018.28;;;27.04;25.13
26376;BME280;30544;42.196;24.336;2024-03-29T11:54:54;99024.56;;;27.09;24.97
26376;BME280;30544;42.196;24.336;2024-03-29T11:57:20;99018.31;;;27.19;24.73
26376;BME280;30544;42.196;24.336;2024-03-29T11:59:47;99010.97;;;27.18;25.10
26376;BME280;30544;42.196;24.336;2024-03-29T12:02:13;99019.22;;;26.95;24.71
26376;BME280;30544;42.196;24.336;2024-03-29T12:04:40;99023.63;;;26.93;24.29
26376;BME280;30544;42.196;24.336;2024-03-29T12:07:08;99003.81;;;27.09;24.70
26376;BME280;30544;42.196;24.336;2024-03-29T12:09:35;99009.69;;;27.16;24.70
26376;BME280;30544;42.196;24.336;2024-03-29T12:12:04;99005.28;;;27.18;24.68
26376;BME280;30544;42.196;24.336;2024-03-29T12:14:31;99005.56;;;27.13;24.30
26376;BME280;30544;42.196;24.336;2024-03-29T12:17:00;98999.66;;;27.06;24.65
26376;BME280;30544;42.196;24.336;2024-03-29T12:19:27;98999.78;;;27.10;24.40
26376;BME280;30544;42.196;24.336;2024-03-29T12:21:53;98987.59;;;27.25;24.41
26376;BME280;30544;42.196;24.336;2024-03-29T12:24:21;98981.72;;;27.34;24.97
26376;BME280;30544;42.196;24.336;2024-03-29T12:26:48;98983.13;;;27.40;24.96
26376;BME280;30544;42.196;24.336;2024-03-29T12:29:14;98983.69;;;27.45;24.60
26376;BME280;30544;42.196;24.336;2024-03-29T12:31:41;98989.56;;;27.52;25.01
26376;BME280;30544;42.196;24.336;2024-03-29T12:34:07;98992.22;;;27.61;24.70
26376;BME280;30544;42.196;24.336;2024-03-29T12:36:34;98980.84;;;27.61;23.74
26376;BME280;30544;42.196;24.336;2024-03-29T12:39:01;98981.34;;;27.63;24.07
26376;BME280;30544;42.196;24.336;2024-03-29T12:41:30;98986.34;;;27.54;24.13
26376;BME280;30544;42.196;24.336;2024-03-29T12:43:56;98979.94;;;27.57;23.78
26376;BME280;30544;42.196;24.336;2024-03-29T12:46:23;98985.09;;;27.67;24.26
26376;BME280;30544;42.196;24.336;2024-03-29T12:48:56;98981.63;;;27.74;23.93